Pasadena, TX (77504)

8:16 PM CDT on August 28, 2014 (GMT -0500)
Fairmont Townhomes | Change Station
CLOSE
Current Station
Personal Weather Station
Location: Pasadena, TX
Elevation: 46 ft
Nearby Weather Stations

Elev 46 ft 29.65 °N, 95.19 °W | Updated 2 minutes ago

Mostly Cloudy
Mostly Cloudy
80.2 °F
Feels Like 86 °F
N
2.2
Wind Variable Wind from South

Today
High -- | Low -- °F
--% Chance of Precip.
Yesterday
High -- | Low -- °F
Precip. -- in
6:55 AM 7:47 PM
Waxing Crescent, 11% visible
Pressure 29.90 in
Visibility 10.0 miles
Clouds Few 3000 ft
Scattered Clouds 17000 ft
Mostly Cloudy 25000 ft
Heat Index 86 °F
Dew Point 76 °F
Humidity 87%
Rainfall 0.10 in
Snow Depth Not available.
UV 0 out of 12
Pollen 5.60 out of 12
Ozone Good
PM2.5 Good
Flu Activity Not available.
METAR KEFD 290050Z 09003KT 10SM FEW030 SCT170 BKN250 27/24 A2990

More Conditions Fewer Conditions

Pressure 29.90 in
Visibility 10.0 miles
Clouds Few 3000 ft
Scattered Clouds 17000 ft
Mostly Cloudy 25000 ft
Heat Index 86 °F
Dew Point 76 °F
Humidity 87%
Rainfall 0.10 in
Snow Depth Not available.
UV 0 out of 12
Pollen 5.60 out of 12
Ozone Good
PM2.5 Good
Flu Activity Not available.
METAR KEFD 290050Z 09003KT 10SM FEW030 SCT170 BKN250 27/24 A2990

More Conditions Fewer Conditions

10-Day Weather Forecast

Almanac

Astronomy

Aug. 28, 2014 Rise Set
Actual Time 6:55 AM CDT 7:47 PM CDT
Civil Twilight 6:31 AM CDT 8:11 PM CDT
Nautical Twilight 6:02 AM CDT 8:40 PM CDT
Astronomical Twilight 5:33 AM CDT 9:10 PM CDT
Moon 9:33 AM CDT (8/28) 9:29 PM CDT (8/28)
Length of Visible Light 13h 40m
Length of Day
12h 51m
Tomorrow will be 1m 40s shorter.
Waxing Crescent, 11% of the Moon is Illuminated
Today
Waxing Crescent
Sep 2
First Quarter
Sep 8
Full
Sep 15
Last Quarter
Sep 24
New

Today's Extremes

State Highs State Lows

Community

WunderPhotos

Upload Photos

1,748,126 photos uploaded!

Nearby

Air Quality

  Air Quality AQ Index Pollutant
Yesterday Good
PM2.5
Yesterday Good
OZONE
Current Good
OZONE
Current Good
PM2.5
Thursday Good
OZONE
Thursday Good
PM10
Friday Good
OZONE
Friday Good
PM10
Saturday Good
OZONE
Saturday Good
PM10
Sunday Good
OZONE
Sunday Good
PM10

Snow Depth

Station Depth Elevation
No new snow has been reported.

Earthquake Activity

City Distance Mag. Time & Date
No recent earthquake activity has been reported nearby.
Minimum magnitude displayed is 2.5.

Coastal Water Temperatures

Place Temperature
Eagle Point, TX 84.0 °F
USCG Freeport, TX 84.0 °F
Galveston Pier TX 84.9 °F
Galveston Bay (North Jetty), TX 84.9 °F
Rollover Pass, TX 82.0 °F

Nearby Weather Stations